Time;durP1;ratioP1;P1;durP2;ratioP2;P2;SDS_P1;SDS_P2;PMS_P1;PMS_P2;Temp;Humidity;BMP_temperature;BMP_pressure;BME280_temperature;BME280_humidity;BME280_pressure;Samples;Min_cycle;Max_cycle;Signal;HPM_P1;HPM_P2
2022/08/24 03:02:27;;;;;;;0.70;0.70;;;21.00;64.70;;;;;;5303069;22;20511;-70
2022/08/24 03:04:54;;;;;;;0.70;0.70;;;21.00;64.70;;;;;;5034518;28;20448;-70
2022/08/24 03:07:20;;;;;;;0.70;0.70;;;20.90;64.90;;;;;;5034469;28;20448;-70
2022/08/24 03:09:47;;;;;;;0.70;0.70;;;20.90;65.20;;;;;;5034282;28;20462;-69
2022/08/24 03:12:14;;;;;;;0.70;0.70;;;20.80;65.20;;;;;;5034275;28;20467;-69
2022/08/24 03:14:40;;;;;;;0.80;0.70;;;20.80;65.20;;;;;;5034316;28;20476;-70
2022/08/24 03:17:07;;;;;;;0.70;0.70;;;20.80;65.30;;;;;;5035818;28;20454;-69
2022/08/24 03:19:35;;;;;;;0.97;0.70;;;20.80;65.40;;;;;;5034137;28;20451;-70
2022/08/24 03:22:02;;;;;;;1.00;0.70;;;20.80;65.30;;;;;;5034128;28;20459;-70
2022/08/24 03:24:29;;;;;;;0.90;0.80;;;20.80;65.30;;;;;;5034124;28;20447;-70
2022/08/24 03:26:55;;;;;;;0.70;0.60;;;20.80;65.40;;;;;;5034112;28;20443;-70
2022/08/24 03:29:22;;;;;;;0.90;0.80;;;20.80;65.50;;;;;;5033756;28;20486;-70
2022/08/24 03:31:49;;;;;;;0.80;0.60;;;20.80;65.60;;;;;;5033558;28;20893;-70
2022/08/24 03:34:18;;;;;;;0.73;0.60;;;20.70;65.60;;;;;;5033965;28;20447;-70
2022/08/24 03:36:46;;;;;;;0.70;0.60;;;20.70;65.70;;;;;;5033940;28;20451;-70
2022/08/24 03:39:13;;;;;;;0.77;0.70;;;20.70;65.90;;;;;;5033911;28;20539;-70
2022/08/24 03:41:40;;;;;;;0.80;0.70;;;20.70;66.00;;;;;;5033712;28;20468;-70
2022/08/24 03:44:06;;;;;;;0.80;0.70;;;20.70;66.00;;;;;;5033507;28;20930;-70
2022/08/24 03:46:36;;;;;;;0.70;0.60;;;20.70;66.10;;;;;;5033534;28;20955;-69
2022/08/24 03:49:04;;;;;;;0.70;0.60;;;20.60;66.20;;;;;;5033729;28;20447;-69
2022/08/24 03:51:31;;;;;;;0.73;0.67;;;20.60;66.40;;;;;;5033493;28;20522;-70
2022/08/24 03:54:00;;;;;;;0.70;0.67;;;20.60;66.50;;;;;;5033656;28;20871;-70
2022/08/24 03:56:27;;;;;;;0.80;0.80;;;20.60;66.50;;;;;;5033622;28;20501;-71
2022/08/24 03:58:54;;;;;;;0.80;0.80;;;20.60;66.70;;;;;;5033328;28;20542;-71
2022/08/24 04:01:21;;;;;;;0.70;0.60;;;20.60;66.80;;;;;;5033475;28;20558;-71
2022/08/24 04:03:48;;;;;;;0.80;0.80;;;20.60;67.00;;;;;;5033306;28;20973;-71
2022/08/24 04:06:17;;;;;;;0.80;0.70;;;20.60;66.90;;;;;;5033540;28;20456;-71
2022/08/24 04:08:44;;;;;;;0.70;0.60;;;20.60;67.00;;;;;;5033609;28;20811;-71
2022/08/24 04:11:14;;;;;;;0.70;0.60;;;20.50;66.90;;;;;;5033398;28;20487;-71
2022/08/24 04:13:41;;;;;;;0.80;0.70;;;20.50;67.00;;;;;;5033485;28;20546;-71
2022/08/24 04:16:10;;;;;;;0.80;0.70;;;20.50;66.90;;;;;;5033395;28;20447;-71
2022/08/24 04:18:37;;;;;;;0.80;0.70;;;20.50;66.50;;;;;;5033353;28;20443;-70
2022/08/24 04:21:04;;;;;;;0.80;0.70;;;20.50;66.40;;;;;;5032989;28;20975;-71
2022/08/24 04:23:32;;;;;;;0.70;0.70;;;20.50;66.30;;;;;;5033351;28;20506;-71
2022/08/24 04:26:02;;;;;;;0.70;0.60;;;20.50;66.20;;;;;;5033305;28;20455;-71
2022/08/24 04:28:31;;;;;;;0.90;0.70;;;20.40;66.10;;;;;;5033336;28;20447;-71
2022/08/24 04:30:59;;;;;;;0.70;0.63;;;20.40;66.20;;;;;;5035713;28;20491;-71
2022/08/24 04:33:26;;;;;;;1.20;0.80;;;20.40;66.10;;;;;;5037387;28;20451;-71
2022/08/24 04:35:53;;;;;;;0.70;0.70;;;20.40;66.20;;;;;;5036923;28;20854;-71
2022/08/24 04:38:20;;;;;;;0.70;0.70;;;20.30;66.20;;;;;;5037309;28;20501;-71
2022/08/24 04:40:48;;;;;;;0.70;0.70;;;20.30;66.20;;;;;;5037119;28;20467;-71
2022/08/24 04:43:15;;;;;;;0.80;0.73;;;20.30;66.40;;;;;;5037192;28;20529;-71
2022/08/24 04:45:46;;;;;;;0.70;0.60;;;20.30;66.30;;;;;;5037112;28;20493;-71
2022/08/24 04:48:14;;;;;;;0.70;0.70;;;20.30;66.60;;;;;;5037075;28;20436;-71
2022/08/24 04:50:43;;;;;;;0.80;0.80;;;20.30;66.70;;;;;;5036860;28;20483;-71
2022/08/24 04:53:12;;;;;;;0.70;0.70;;;20.30;66.60;;;;;;5036956;28;20451;-71
2022/08/24 04:55:44;;;;;;;1.07;0.80;;;20.30;66.60;;;;;;5036681;28;20967;-71
2022/08/24 04:58:12;;;;;;;1.00;0.80;;;20.40;66.70;;;;;;5036967;28;20439;-71
2022/08/24 05:00:38;;;;;;;0.80;0.80;;;20.40;66.50;;;;;;5036705;28;20442;-71
2022/08/24 05:03:07;;;;;;;0.70;0.70;;;20.50;66.40;;;;;;5036821;28;20513;-71
2022/08/24 05:05:34;;;;;;;0.70;0.70;;;20.60;66.10;;;;;;5036429;28;21024;-71
2022/08/24 05:08:01;;;;;;;0.73;0.70;;;20.60;65.90;;;;;;5036706;28;20451;-71
2022/08/24 05:10:28;;;;;;;0.80;0.70;;;20.70;65.60;;;;;;5036553;28;20451;-71
2022/08/24 05:12:54;;;;;;;0.70;0.70;;;20.70;65.50;;;;;;5036633;28;20501;-71
2022/08/24 05:15:21;;;;;;;0.80;0.80;;;20.80;65.30;;;;;;5036597;28;20522;-71
2022/08/24 05:17:49;;;;;;;0.80;0.80;;;20.80;65.20;;;;;;5036519;28;20444;-70
2022/08/24 05:20:17;;;;;;;0.70;0.70;;;20.90;65.20;;;;;;5036391;28;20556;-70
2022/08/24 05:22:43;;;;;;;0.90;0.77;;;21.00;65.20;;;;;;5036336;28;20463;-71
2022/08/24 05:25:10;;;;;;;0.70;0.70;;;21.10;65.40;;;;;;5036365;28;20444;-70
2022/08/24 05:27:37;;;;;;;0.80;0.73;;;21.30;65.20;;;;;;5036378;28;20493;-71
2022/08/24 05:30:05;;;;;;;0.90;0.70;;;21.40;65.70;;;;;;5036304;28;20478;-71
2022/08/24 05:32:31;;;;;;;1.00;0.70;;;21.60;65.60;;;;;;5036115;28;20549;-72
2022/08/24 05:35:00;;;;;;;0.80;0.70;;;21.80;65.40;;;;;;5036212;28;20447;-72
2022/08/24 05:37:28;;;;;;;0.80;0.80;;;21.90;64.70;;;;;;5036157;28;20874;-71
2022/08/24 05:39:55;;;;;;;0.80;0.70;;;22.10;64.50;;;;;;5036101;28;20455;-71
2022/08/24 05:42:21;;;;;;;0.70;0.70;;;22.30;64.60;;;;;;5034621;28;20463;-71
2022/08/24 05:44:48;;;;;;;0.70;0.70;;;22.40;63.80;;;;;;5036033;28;20463;-71
2022/08/24 05:47:15;;;;;;;0.70;0.70;;;22.50;63.50;;;;;;5036066;28;20501;-71
2022/08/24 05:49:42;;;;;;;0.70;0.60;;;22.60;63.60;;;;;;5035949;28;20439;-71
2022/08/24 05:52:09;;;;;;;0.80;0.70;;;22.80;63.40;;;;;;5035808;28;20538;-71
2022/08/24 05:54:37;;;;;;;0.70;0.60;;;22.90;62.80;;;;;;5035862;28;20502;-71
2022/08/24 05:57:05;;;;;;;1.00;0.70;;;23.00;62.80;;;;;;5035777;28;20456;-71
2022/08/24 05:59:32;;;;;;;0.70;0.60;;;23.20;62.50;;;;;;5035609;28;20817;-70
2022/08/24 06:01:59;;;;;;;0.80;0.80;;;23.30;63.00;;;;;;5035311;28;20534;-71
2022/08/24 06:04:26;;;;;;;1.07;0.60;;;23.50;62.70;;;;;;5035959;28;20462;-72
2022/08/24 06:06:53;;;;;;;0.70;0.60;;;23.70;62.00;;;;;;5035610;28;20458;-72
2022/08/24 06:09:20;;;;;;;1.13;0.83;;;23.90;61.00;;;;;;5035538;28;20456;-70
2022/08/24 06:11:48;;;;;;;1.00;0.80;;;24.10;60.60;;;;;;5035549;28;20487;-72
2022/08/24 06:14:17;;;;;;;0.70;0.60;;;24.40;60.00;;;;;;5035556;28;20452;-72
2022/08/24 06:16:45;;;;;;;1.13;0.70;;;24.50;59.60;;;;;;5035287;28;20939;-72
2022/08/24 06:19:15;;;;;;;0.70;0.60;;;24.60;59.60;;;;;;5035087;28;20873;-72
2022/08/24 06:21:42;;;;;;;0.80;0.70;;;24.80;59.30;;;;;;5035362;28;20467;-73
2022/08/24 06:24:09;;;;;;;0.80;0.70;;;25.10;58.80;;;;;;5035325;28;20448;-73
2022/08/24 06:29:21;;;;;;;0.80;0.67;;;25.50;57.10;;;;;;5035403;28;20614;-72
2022/08/24 06:31:49;;;;;;;0.80;0.60;;;25.70;55.80;;;;;;5035040;28;20537;-73
2022/08/24 06:34:18;;;;;;;0.70;0.60;;;25.60;55.20;;;;;;5035374;28;20498;-73
2022/08/24 06:36:45;;;;;;;0.70;0.70;;;25.40;56.30;;;;;;5035036;28;20525;-73
2022/08/24 06:39:12;;;;;;;0.80;0.70;;;25.10;56.80;;;;;;5034698;28;20954;-73
2022/08/24 06:41:39;;;;;;;0.80;0.60;;;25.20;56.60;;;;;;5034580;28;20979;-73
2022/08/24 06:44:06;;;;;;;1.00;0.70;;;25.30;56.70;;;;;;5034964;28;20450;-73
2022/08/24 06:46:35;;;;;;;0.90;0.70;;;25.30;56.50;;;;;;5034861;28;20447;-72
2022/08/24 06:49:01;;;;;;;0.97;0.77;;;25.60;56.90;;;;;;5034647;28;21029;-72
2022/08/24 06:51:29;;;;;;;0.80;0.67;;;25.80;54.70;;;;;;5034619;28;20487;-73
2022/08/24 06:53:56;;;;;;;0.80;0.63;;;26.20;55.00;;;;;;5034380;28;20452;-73
2022/08/24 06:56:22;;;;;;;1.23;0.93;;;26.50;54.10;;;;;;5034685;28;20454;-73
2022/08/24 06:58:50;;;;;;;0.70;0.60;;;26.40;53.30;;;;;;5034647;28;20535;-73
2022/08/24 07:01:19;;;;;;;0.70;0.60;;;26.50;53.70;;;;;;5034252;28;20882;-73
2022/08/24 07:03:47;;;;;;;0.80;0.67;;;26.50;52.60;;;;;;5034261;28;21001;-73
2022/08/24 07:06:14;;;;;;;0.80;0.70;;;26.20;52.90;;;;;;5035282;28;20494;-73
2022/08/24 07:08:42;;;;;;;0.70;0.60;;;26.30;52.90;;;;;;5034494;28;20447;-72
2022/08/24 07:11:10;;;;;;;0.70;0.70;;;25.90;52.50;;;;;;5034296;28;20478;-73
2022/08/24 07:13:37;;;;;;;0.70;0.60;;;26.20;53.40;;;;;;5034421;28;20451;-73
2022/08/24 07:16:04;;;;;;;0.80;0.60;;;25.90;52.60;;;;;;5034025;28;20809;-73
2022/08/24 07:18:31;;;;;;;0.70;0.70;;;26.00;53.00;;;;;;5034016;28;21014;-73
2022/08/24 07:21:01;;;;;;;0.70;0.60;;;25.90;53.30;;;;;;5033834;28;21125;-73
2022/08/24 07:23:28;;;;;;;0.70;0.60;;;25.90;53.60;;;;;;5034223;28;20973;-72
2022/08/24 07:25:55;;;;;;;0.70;0.60;;;26.30;53.80;;;;;;5034151;28;20452;-72
2022/08/24 07:28:23;;;;;;;0.70;0.60;;;26.30;52.60;;;;;;5033742;28;20943;-73
2022/08/24 07:30:49;;;;;;;0.90;0.70;;;26.00;52.60;;;;;;5034002;28;20518;-73
2022/08/24 07:33:16;;;;;;;0.80;0.70;;;26.00;53.40;;;;;;5033934;28;20510;-72
2022/08/24 07:35:43;;;;;;;0.70;0.60;;;26.20;53.30;;;;;;5033949;28;20447;-73
2022/08/24 07:38:12;;;;;;;1.47;0.67;;;26.50;52.60;;;;;;5033934;28;20454;-73
2022/08/24 07:40:39;;;;;;;0.77;0.70;;;26.50;52.50;;;;;;5033750;28;20531;-73
2022/08/24 07:43:05;;;;;;;1.00;0.70;;;26.50;52.50;;;;;;5033501;28;20989;-73
2022/08/24 07:45:33;;;;;;;1.33;0.90;;;26.20;54.20;;;;;;5033780;28;20447;-72
2022/08/24 07:48:01;;;;;;;0.80;0.77;;;26.20;54.30;;;;;;5033792;28;20456;-73
2022/08/24 07:50:29;;;;;;;0.90;0.80;;;26.00;53.50;;;;;;5033654;28;20449;-73
2022/08/24 07:52:55;;;;;;;1.17;0.80;;;26.00;54.00;;;;;;5033638;28;20472;-73
2022/08/24 07:55:24;;;;;;;1.00;0.80;;;26.10;54.10;;;;;;5033626;28;20448;-72
2022/08/24 07:57:50;;;;;;;1.63;1.00;;;26.30;53.50;;;;;;5033392;28;20928;-73
2022/08/24 08:00:19;;;;;;;0.80;0.80;;;26.10;53.00;;;;;;5033355;28;20447;-73
2022/08/24 08:02:46;;;;;;;1.20;0.90;;;26.00;52.40;;;;;;5033411;28;20503;-73
2022/08/24 08:05:14;;;;;;;1.53;0.90;;;26.20;52.90;;;;;;5032730;28;20455;-73
2022/08/24 08:07:41;;;;;;;1.83;0.80;;;26.50;52.40;;;;;;5033480;28;20447;-73
2022/08/24 08:10:10;;;;;;;1.30;0.90;;;26.40;52.60;;;;;;5033469;28;20450;-73
2022/08/24 08:12:38;;;;;;;1.00;0.70;;;26.50;52.10;;;;;;5033346;28;20487;-73
2022/08/24 08:15:08;;;;;;;0.90;0.80;;;26.60;51.80;;;;;;5033063;28;20862;-72
2022/08/24 08:17:35;;;;;;;1.00;0.77;;;26.70;51.80;;;;;;5033614;28;20456;-72
2022/08/24 08:20:02;;;;;;;1.27;1.03;;;26.80;51.60;;;;;;5033243;28;20447;-73
2022/08/24 08:25:13;;;;;;;0.87;0.80;;;27.00;51.70;;;;;;5033381;28;20554;-72
2022/08/24 08:27:41;;;;;;;0.70;0.60;;;26.70;52.10;;;;;;5033304;28;20451;-73
2022/08/24 08:30:09;;;;;;;1.10;0.97;;;26.50;50.20;;;;;;5033231;28;20502;-72
2022/08/24 08:32:35;;;;;;;0.80;0.70;;;26.50;50.80;;;;;;5032831;28;21092;-73
2022/08/24 08:35:03;;;;;;;0.70;0.60;;;26.50;49.30;;;;;;5033227;28;20641;-72
2022/08/24 08:37:30;;;;;;;0.80;0.60;;;26.40;49.10;;;;;;5033261;28;20454;-73
2022/08/24 08:39:57;;;;;;;0.70;0.70;;;26.20;50.20;;;;;;5033100;28;20810;-73
2022/08/24 08:42:46;;;;;;;0.70;0.50;;;25.80;51.50;;;;;;5033050;28;20460;-73
2022/08/24 08:45:26;;;;;;;0.70;0.50;;;26.00;50.60;;;;;;5030243;28;20501;-72
2022/08/24 08:48:26;;;;;;;0.70;0.60;;;26.10;51.10;;;;;;5033142;28;20435;-72
2022/08/24 08:51:35;;;;;;;0.80;0.67;;;25.70;51.10;;;;;;5033055;28;20530;-73
2022/08/24 08:54:13;;;;;;;0.80;0.70;;;25.40;50.80;;;;;;5033120;28;20427;-73
2022/08/24 08:56:51;;;;;;;0.80;0.80;;;25.50;52.00;;;;;;5032769;28;20788;-73
2022/08/24 08:59:33;;;;;;;0.97;0.80;;;25.90;51.20;;;;;;5032797;28;20442;-73
2022/08/24 09:02:16;;;;;;;0.70;0.60;;;26.20;50.70;;;;;;5032595;28;20479;-73
2022/08/24 09:04:57;;;;;;;1.13;0.70;;;26.40;49.90;;;;;;5033027;28;20436;-73
2022/08/24 09:07:39;;;;;;;1.00;0.70;;;26.50;49.40;;;;;;5032937;28;20490;-73
2022/08/24 09:10:35;;;;;;;0.70;0.60;;;26.70;49.70;;;;;;5032895;28;20435;-72
2022/08/24 09:13:14;;;;;;;0.70;0.60;;;26.80;48.70;;;;;;5027833;28;20518;-73
2022/08/24 09:15:58;;;;;;;0.70;0.60;;;27.10;48.40;;;;;;5034855;28;20444;-73
2022/08/24 09:18:40;;;;;;;0.70;0.60;;;27.10;48.30;;;;;;5036675;28;20838;-73
2022/08/24 09:21:22;;;;;;;0.70;0.60;;;27.10;47.70;;;;;;5036546;28;20558;-73
2022/08/24 09:24:00;;;;;;;0.70;0.60;;;27.30;48.50;;;;;;5036544;28;20489;-72
2022/08/24 09:26:29;;;;;;;0.70;0.57;;;27.40;47.50;;;;;;5036458;28;20513;-73
2022/08/24 09:29:09;;;;;;;0.70;0.60;;;27.60;48.10;;;;;;5036018;28;20451;-73
2022/08/24 09:31:50;;;;;;;0.70;0.60;;;27.60;47.90;;;;;;5036350;28;20556;-73
2022/08/24 09:34:37;;;;;;;0.90;0.63;;;27.50;49.00;;;;;;5035951;28;20923;-73
2022/08/24 09:37:30;;;;;;;0.70;0.60;;;27.40;48.40;;;;;;5036012;28;20420;-73
2022/08/24 09:40:01;;;;;;;0.90;0.70;;;27.70;46.10;;;;;;5036230;28;20502;-72
2022/08/24 09:42:59;;;;;;;0.70;0.60;;;27.70;46.00;;;;;;5036033;28;20809;-73
2022/08/24 09:46:00;;;;;;;0.90;0.50;;;27.70;46.90;;;;;;5036122;28;20486;-73
2022/08/24 09:49:01;;;;;;;0.70;0.60;;;27.70;47.20;;;;;;5036110;28;20428;-73
2022/08/24 09:52:08;;;;;;;1.23;0.63;;;27.80;47.30;;;;;;5035968;28;20464;-73
2022/08/24 09:55:00;;;;;;;0.77;0.60;;;27.80;47.30;;;;;;5018677;28;20566;-73
2022/08/24 09:57:48;;;;;;;1.93;0.60;;;28.00;47.80;;;;;;5035627;28;20953;-72
2022/08/24 10:00:19;;;;;;;0.80;0.60;;;28.00;46.30;;;;;;5035823;28;20444;-73
2022/08/24 10:02:58;;;;;;;0.70;0.60;;;28.00;46.80;;;;;;5035350;28;20483;-73
2022/08/24 10:05:33;;;;;;;0.70;0.60;;;28.20;46.50;;;;;;5035687;28;20434;-73
2022/08/24 10:08:10;;;;;;;0.77;0.67;;;28.50;45.30;;;;;;5035675;28;20534;-72
2022/08/24 10:10:48;;;;;;;0.70;0.60;;;28.70;44.80;;;;;;5035627;28;20463;-73
2022/08/24 10:13:25;;;;;;;0.70;0.60;;;28.70;44.90;;;;;;5035510;28;20471;-73
2022/08/24 10:16:13;;;;;;;0.80;0.70;;;28.50;44.30;;;;;;5035562;28;20432;-73
2022/08/24 10:18:49;;;;;;;0.70;0.60;;;28.70;45.00;;;;;;5035485;28;20431;-73
2022/08/24 10:21:36;;;;;;;0.70;0.60;;;29.00;44.60;;;;;;5035395;28;20521;-74
2022/08/24 10:24:26;;;;;;;0.70;0.60;;;29.40;44.20;;;;;;5035468;28;20431;-73
2022/08/24 10:27:17;;;;;;;0.73;0.60;;;29.30;44.80;;;;;;5034876;28;20911;-73
2022/08/24 10:30:03;;;;;;;0.70;0.60;;;29.30;44.90;;;;;;5035045;28;20442;-73
2022/08/24 10:32:44;;;;;;;0.70;0.60;;;29.50;44.10;;;;;;5035135;28;20483;-73
2022/08/24 10:35:15;;;;;;;0.80;0.70;;;29.40;44.20;;;;;;5034966;28;20969;-72
2022/08/24 10:41:38;;;;;;;0.80;0.70;;;29.60;44.90;;;;;;5025172;28;20497;-73
2022/08/24 10:44:21;;;;;;;0.70;0.60;;;29.40;45.00;;;;;;5009871;28;20514;-73
2022/08/24 10:46:58;;;;;;;0.70;0.60;;;29.40;45.60;;;;;;5035072;28;20485;-73
2022/08/24 10:50:00;;;;;;;0.80;0.60;;;29.60;44.40;;;;;;5035178;28;20518;-73
2022/08/24 10:52:53;;;;;;;0.70;0.50;;;29.60;45.30;;;;;;5034872;28;20491;-73
2022/08/24 10:55:23;;;;;;;0.80;0.60;;;29.80;44.70;;;;;;5034922;28;20463;-73
2022/08/24 10:58:12;;;;;;;0.70;0.57;;;29.90;45.00;;;;;;5035058;28;20501;-73
2022/08/24 11:00:40;;;;;;;0.70;0.50;;;30.10;44.00;;;;;;5034326;28;20911;-72
2022/08/24 11:03:11;;;;;;;0.70;0.60;;;30.00;44.20;;;;;;5035105;28;20443;-73
2022/08/24 11:05:42;;;;;;;0.90;0.60;;;30.00;43.50;;;;;;5034713;28;20431;-74
2022/08/24 11:08:18;;;;;;;0.90;0.60;;;30.00;44.00;;;;;;5035583;28;20518;-73
2022/08/24 11:10:44;;;;;;;0.70;0.50;;;29.70;43.80;;;;;;5035256;28;20820;-73
2022/08/24 11:13:22;;;;;;;0.70;0.60;;;29.80;44.70;;;;;;5034294;28;20553;-73
2022/08/24 11:15:51;;;;;;;0.77;0.60;;;30.00;44.00;;;;;;5034118;28;20462;-72
2022/08/24 11:18:18;;;;;;;0.70;0.60;;;30.20;43.70;;;;;;5034451;28;20505;-73
2022/08/24 11:20:48;;;;;;;0.70;0.50;;;30.20;44.10;;;;;;5033920;28;20987;-73
2022/08/24 11:23:17;;;;;;;1.47;0.70;;;30.20;44.00;;;;;;5034267;28;20447;-73
2022/08/24 11:25:54;;;;;;;0.70;0.60;;;30.20;43.30;;;;;;5034330;28;20448;-73
2022/08/24 11:28:31;;;;;;;0.70;0.60;;;30.20;44.00;;;;;;5034201;28;20439;-73
2022/08/24 11:30:58;;;;;;;0.70;0.60;;;30.10;43.90;;;;;;5034016;28;20513;-72
2022/08/24 11:33:30;;;;;;;0.70;0.50;;;30.30;43.30;;;;;;5034064;28;20530;-73
2022/08/24 11:35:59;;;;;;;0.70;0.60;;;30.20;43.60;;;;;;5036780;28;20820;-72
2022/08/24 11:38:30;;;;;;;0.70;0.60;;;30.30;43.00;;;;;;5034629;28;20451;-73
2022/08/24 11:41:03;;;;;;;0.70;0.60;;;30.30;43.50;;;;;;5034237;28;20911;-73
2022/08/24 11:43:43;;;;;;;0.90;0.60;;;30.50;42.80;;;;;;5033921;28;20436;-73
2022/08/24 11:46:20;;;;;;;0.70;0.60;;;30.40;43.10;;;;;;5033976;28;20440;-73
2022/08/24 11:48:55;;;;;;;0.70;0.50;;;30.50;42.60;;;;;;5034030;28;20439;-73
2022/08/24 11:51:33;;;;;;;0.80;0.60;;;30.40;42.30;;;;;;5033838;28;20501;-73
2022/08/24 11:54:04;;;;;;;0.70;0.63;;;30.60;42.00;;;;;;5033723;28;20487;-73
2022/08/24 11:56:38;;;;;;;0.70;0.60;;;30.90;42.20;;;;;;5033792;28;20436;-74
2022/08/24 11:59:15;;;;;;;0.80;0.60;;;31.10;41.30;;;;;;5033874;28;20485;-73
2022/08/24 12:01:47;;;;;;;0.70;0.57;;;31.00;39.80;;;;;;5033278;28;20495;-73
2022/08/24 12:04:32;;;;;;;0.70;0.50;;;30.90;40.40;;;;;;5033644;28;20436;-73
2022/08/24 12:07:07;;;;;;;1.07;0.60;;;31.00;40.50;;;;;;5033298;28;20927;-73
2022/08/24 12:09:52;;;;;;;0.70;0.60;;;31.20;40.80;;;;;;5033658;28;20435;-73
2022/08/24 12:12:24;;;;;;;0.70;0.60;;;31.40;40.10;;;;;;5033503;28;20519;-73
2022/08/24 12:15:00;;;;;;;0.70;0.60;;;31.50;39.80;;;;;;5033837;28;20562;-73
2022/08/24 12:17:33;;;;;;;0.70;0.60;;;31.50;38.10;;;;;;5033606;28;20497;-73
2022/08/24 12:20:05;;;;;;;1.00;0.60;;;31.40;37.80;;;;;;5033509;28;20436;-73
2022/08/24 12:22:32;;;;;;;1.47;0.60;;;31.40;38.90;;;;;;5033431;28;20475;-73
2022/08/24 12:26:00;;;;;;;0.90;0.60;;;31.30;38.70;;;;;;5033149;28;20447;-72
2022/08/24 12:27:52;;;;;;;3.87;0.90;;;31.30;39.70;;;;;;5033002;28;20494;-74
2022/08/24 12:30:20;;;;;;;0.70;0.50;;;31.30;39.10;;;;;;5033057;28;20501;-73
2022/08/24 12:32:52;;;;;;;0.70;0.60;;;31.40;39.10;;;;;;5033335;28;20517;-73
2022/08/24 12:35:25;;;;;;;0.70;0.60;;;31.30;39.20;;;;;;5033169;28;20823;-73
2022/08/24 12:37:58;;;;;;;0.70;0.60;;;31.30;38.70;;;;;;5033446;28;20436;-73
2022/08/24 12:40:30;;;;;;;0.70;0.60;;;31.50;38.90;;;;;;5033145;28;20933;-74
2022/08/24 12:43:03;;;;;;;0.70;0.60;;;31.50;39.20;;;;;;5033116;28;20436;-73
2022/08/24 12:45:31;;;;;;;0.70;0.50;;;31.50;38.00;;;;;;5033194;28;20486;-72
2022/08/24 12:48:06;;;;;;;0.70;0.50;;;31.40;39.30;;;;;;5032822;28;20509;-73
2022/08/24 12:50:43;;;;;;;0.70;0.50;;;31.60;38.30;;;;;;5033225;28;20439;-73
2022/08/24 12:53:33;;;;;;;0.70;0.60;;;31.80;39.00;;;;;;5037002;28;20475;-72
2022/08/24 12:56:31;;;;;;;0.70;0.53;;;31.90;38.00;;;;;;5037049;28;20458;-72
2022/08/24 12:59:07;;;;;;;0.70;0.50;;;32.10;37.70;;;;;;5036599;28;20791;-73
2022/08/24 13:01:45;;;;;;;0.70;0.50;;;32.20;37.60;;;;;;5036717;28;20475;-73
2022/08/24 13:04:18;;;;;;;0.70;0.50;;;32.20;37.50;;;;;;5036859;28;20432;-73
2022/08/24 13:06:49;;;;;;;0.70;0.50;;;32.10;38.00;;;;;;5036843;28;20501;-73
2022/08/24 13:09:28;;;;;;;0.70;0.50;;;32.00;37.40;;;;;;5036740;28;20493;-72
2022/08/24 13:11:55;;;;;;;0.70;0.50;;;32.00;38.90;;;;;;5036674;28;20517;-72
2022/08/24 13:14:25;;;;;;;0.83;0.60;;;32.20;38.10;;;;;;5036234;28;20890;-72
2022/08/24 13:17:12;;;;;;;0.70;0.60;;;32.00;37.10;;;;;;5036622;28;20451;-72
2022/08/24 13:19:42;;;;;;;0.70;0.50;;;31.60;36.80;;;;;;5036231;28;20861;-73
2022/08/24 13:22:45;;;;;;;0.70;0.60;;;31.70;36.50;;;;;;5036279;28;20482;-73
2022/08/24 13:25:26;;;;;;;0.70;0.50;;;31.80;36.50;;;;;;5036544;28;20796;-72
2022/08/24 13:28:27;;;;;;;0.70;0.57;;;32.00;37.20;;;;;;5036417;28;20427;-73
2022/08/24 13:31:12;;;;;;;0.70;0.60;;;32.10;37.30;;;;;;5036367;28;20493;-72
2022/08/24 13:33:44;;;;;;;0.70;0.60;;;32.30;36.90;;;;;;5036010;28;21029;-73
2022/08/24 13:36:46;;;;;;;0.80;0.57;;;32.20;36.90;;;;;;5035980;28;20912;-72
2022/08/24 13:39:37;;;;;;;0.70;0.50;;;32.30;36.80;;;;;;5036190;28;20450;-72
2022/08/24 13:42:18;;;;;;;0.80;0.60;;;32.30;37.20;;;;;;5036370;28;20493;-73
2022/08/24 13:45:08;;;;;;;0.70;0.50;;;32.70;36.70;;;;;;5036145;28;20462;-73
2022/08/24 13:47:49;;;;;;;0.60;0.50;;;32.30;35.20;;;;;;5035885;28;20923;-73
2022/08/24 13:50:32;;;;;;;0.80;0.60;;;32.30;36.90;;;;;;5036075;28;20463;-73
2022/08/24 13:53:15;;;;;;;0.70;0.50;;;32.00;37.50;;;;;;5036056;28;20432;-73
2022/08/24 13:55:46;;;;;;;0.70;0.50;;;31.90;37.20;;;;;;5035943;28;20427;-72
2022/08/24 13:58:22;;;;;;;0.60;0.50;;;31.90;37.10;;;;;;5035999;28;20878;-73
2022/08/24 14:00:56;;;;;;;0.70;0.57;;;32.20;36.10;;;;;;5036041;28;20467;-73
2022/08/24 14:03:52;;;;;;;0.63;0.50;;;32.40;35.70;;;;;;5034729;28;20868;-73
2022/08/24 14:06:30;;;;;;;1.53;0.60;;;32.80;34.90;;;;;;5035485;28;20916;-72
2022/08/24 14:09:11;;;;;;;0.70;0.50;;;32.90;34.00;;;;;;5035669;28;20544;-72
2022/08/24 14:11:57;;;;;;;0.60;0.50;;;33.30;35.00;;;;;;5035489;28;20463;-73
2022/08/24 14:14:53;;;;;;;0.70;0.60;;;33.50;35.60;;;;;;5035501;28;20459;-73
2022/08/24 14:20:23;;;;;;;0.70;0.60;;;32.10;38.90;;;;;;5035563;28;20918;-73
2022/08/24 14:23:02;;;;;;;0.70;0.57;;;32.10;37.60;;;;;;5035402;28;20447;-72
2022/08/24 14:25:32;;;;;;;0.70;0.50;;;32.50;38.40;;;;;;5035346;28;20454;-73
2022/08/24 14:28:31;;;;;;;0.70;0.60;;;32.70;38.30;;;;;;5035408;28;20474;-74
2022/08/24 14:31:18;;;;;;;0.80;0.60;;;32.70;38.70;;;;;;5035232;28;20472;-74
2022/08/24 14:33:54;;;;;;;1.47;0.70;;;32.60;38.90;;;;;;5035252;28;20579;-72
2022/08/24 14:36:30;;;;;;;0.60;0.50;;;32.90;38.70;;;;;;5035136;28;20427;-72
2022/08/24 14:39:20;;;;;;;0.80;0.60;;;33.10;37.60;;;;;;5034824;28;20806;-72
2022/08/24 14:41:55;;;;;;;0.70;0.60;;;33.40;36.90;;;;;;5034696;28;20467;-73
2022/08/24 14:44:51;;;;;;;0.90;0.60;;;33.60;35.40;;;;;;5035045;28;20427;-72
2022/08/24 14:47:30;;;;;;;0.70;0.60;;;33.80;35.90;;;;;;5033106;28;20878;-73
2022/08/24 14:50:07;;;;;;;0.60;0.50;;;34.20;35.30;;;;;;5035709;28;20427;-73
2022/08/24 14:52:54;;;;;;;0.60;0.50;;;34.00;35.70;;;;;;5034753;28;20466;-73
2022/08/24 14:55:30;;;;;;;0.70;0.60;;;34.10;35.10;;;;;;5034779;28;20464;-73
2022/08/24 14:58:08;;;;;;;0.70;0.60;;;34.40;35.90;;;;;;5035014;28;20436;-72
2022/08/24 15:00:52;;;;;;;0.70;0.60;;;34.90;35.20;;;;;;5034574;28;20432;-73
2022/08/24 15:03:33;;;;;;;0.70;0.50;;;35.50;34.40;;;;;;5034653;28;20431;-73
2022/08/24 15:06:22;;;;;;;0.70;0.50;;;36.00;34.30;;;;;;5034828;28;20431;-73
2022/08/24 15:08:49;;;;;;;0.80;0.70;;;36.70;34.60;;;;;;5034512;28;20490;-72
2022/08/24 15:11:22;;;;;;;1.40;0.50;;;36.90;33.50;;;;;;5034343;28;20513;-72
2022/08/24 15:13:53;;;;;;;0.70;0.50;;;37.40;33.20;;;;;;5033848;28;20471;-73
2022/08/24 15:16:25;;;;;;;0.70;0.50;;;37.20;33.60;;;;;;5035676;28;20938;-73
2022/08/24 15:19:03;;;;;;;0.67;0.50;;;37.00;34.00;;;;;;5034018;28;20777;-72
2022/08/24 15:21:40;;;;;;;0.80;0.60;;;36.40;33.90;;;;;;5034320;28;20467;-73
2022/08/24 15:24:15;;;;;;;0.70;0.53;;;36.20;35.30;;;;;;5034234;28;20436;-73
2022/08/24 15:26:53;;;;;;;0.60;0.50;;;35.50;36.40;;;;;;5034587;28;20597;-72
2022/08/24 15:29:23;;;;;;;0.70;0.50;;;34.90;37.60;;;;;;5034540;28;20436;-72
2022/08/24 15:31:59;;;;;;;0.90;0.60;;;34.70;38.00;;;;;;5034591;28;20474;-73
2022/08/24 15:34:40;;;;;;;0.70;0.57;;;34.60;38.30;;;;;;5033982;28;21002;-72
2022/08/24 15:37:07;;;;;;;0.70;0.50;;;34.50;38.60;;;;;;5034086;28;20896;-72
2022/08/24 15:39:34;;;;;;;0.73;0.60;;;34.70;38.20;;;;;;5034339;28;20539;-71
2022/08/24 15:42:10;;;;;;;0.83;0.50;;;34.70;38.50;;;;;;5034210;28;20467;-72
2022/08/24 15:44:39;;;;;;;0.70;0.50;;;34.40;38.90;;;;;;5034517;28;20427;-72
2022/08/24 15:47:17;;;;;;;0.70;0.60;;;33.00;41.20;;;;;;5034501;28;20455;-72
2022/08/24 15:49:49;;;;;;;0.70;0.57;;;32.70;41.80;;;;;;5034192;28;20439;-72
2022/08/24 15:52:37;;;;;;;0.70;0.60;;;32.20;42.60;;;;;;5033873;28;20558;-71
2022/08/24 15:55:06;;;;;;;0.70;0.60;;;31.80;43.50;;;;;;5033771;28;20467;-72
2022/08/24 15:57:40;;;;;;;0.77;0.53;;;31.50;44.20;;;;;;5033671;28;20502;-72
2022/08/24 16:00:09;;;;;;;0.70;0.50;;;31.10;45.00;;;;;;5033513;28;20443;-71
2022/08/24 16:02:37;;;;;;;1.07;0.60;;;30.90;45.30;;;;;;5034578;28;20479;-72
2022/08/24 16:05:34;;;;;;;0.70;0.60;;;30.80;45.60;;;;;;5033802;28;20447;-72
2022/08/24 16:08:12;;;;;;;0.70;0.60;;;30.50;46.00;;;;;;5033618;28;20811;-72
2022/08/24 16:10:41;;;;;;;0.70;0.50;;;30.40;46.70;;;;;;5033678;28;20894;-71
2022/08/24 16:13:19;;;;;;;0.70;0.60;;;30.30;46.90;;;;;;5033836;28;20447;-71
2022/08/24 16:15:48;;;;;;;0.70;0.50;;;30.30;47.20;;;;;;5034766;28;20471;-71
2022/08/24 16:18:16;;;;;;;0.80;0.60;;;30.20;47.10;;;;;;5033992;28;20510;-72
2022/08/24 16:20:44;;;;;;;0.70;0.50;;;30.10;47.70;;;;;;5033573;28;20993;-72
2022/08/24 16:23:13;;;;;;;0.70;0.57;;;30.10;47.30;;;;;;5033994;28;20451;-72
2022/08/24 16:25:43;;;;;;;0.80;0.70;;;30.00;47.40;;;;;;5033046;28;20450;-73
2022/08/24 16:28:31;;;;;;;0.70;0.50;;;29.80;47.60;;;;;;5033312;28;20488;-70
2022/08/24 16:31:00;;;;;;;0.70;0.60;;;29.80;47.40;;;;;;5033231;28;20467;-69
2022/08/24 16:33:42;;;;;;;0.70;0.60;;;29.90;47.60;;;;;;5033190;28;20462;-70
2022/08/24 16:36:11;;;;;;;0.70;0.60;;;29.70;47.80;;;;;;5033105;28;20479;-70